Time;durP1;ratioP1;P1;durP2;ratioP2;P2;SDS_P1;SDS_P2;PMS_P1;PMS_P2;Temp;Humidity;BMP_temperature;BMP_pressure;BME280_temperature;BME280_humidity;BME280_pressure;Samples;Min_cycle;Max_cycle;Signal;HPM_P1;HPM_P2
2023/10/24 00:01:43;;;;;;;1999.90;999.90;;;;;;;;;;5064179;28;20056;-84
2023/10/24 00:04:09;;;;;;;1999.90;999.90;;;;;;;;;;5060566;28;20047;-83
2023/10/24 00:06:36;;;;;;;1999.90;999.90;;;;;;;;;;5062660;28;20045;-83
2023/10/24 00:09:04;;;;;;;1999.90;999.90;;;;;;;;;;5063524;28;20041;-83
2023/10/24 00:11:31;;;;;;;1999.90;999.90;;;;;;;;;;5062848;28;20036;-82
2023/10/24 00:13:57;;;;;;;1999.90;999.90;;;;;;;;;;5060553;28;20428;-83
2023/10/24 00:16:24;;;;;;;1999.90;999.90;;;;;;;;;;5064732;28;20036;-83
2023/10/24 00:18:52;;;;;;;1999.90;999.90;;;;;;;;;;5066144;28;20053;-83
2023/10/24 00:21:18;;;;;;;1999.90;999.90;;;;;;;;;;5061292;28;20100;-83
2023/10/24 00:23:45;;;;;;;1999.90;999.90;;;;;;;;;;5061510;28;20056;-83
2023/10/24 00:26:11;;;;;;;1999.90;999.90;;;;;;;;;;5062449;28;20474;-83
2023/10/24 00:28:38;;;;;;;1999.90;999.90;;;;;;;;;;5057790;28;20040;-85
2023/10/24 00:31:07;;;;;;;1999.90;999.90;;;;;;;;;;5061059;28;20076;-83
2023/10/24 00:33:33;;;;;;;1999.90;999.90;;;;;;;;;;5060635;28;20061;-85
2023/10/24 00:36:01;;;;;;;1999.90;999.90;;;;;;;;;;5063104;28;20117;-84
2023/10/24 00:38:28;;;;;;;1999.90;999.90;;;;;;;;;;5057351;28;20041;-84
2023/10/24 00:40:54;;;;;;;1999.90;999.90;;;;;;;;;;5062205;28;20061;-85
2023/10/24 00:43:21;;;;;;;1999.90;999.90;;;;;;;;;;5062967;28;20055;-83
2023/10/24 00:45:47;;;;;;;1999.90;999.90;;;;;;;;;;5062381;28;20501;-84
2023/10/24 00:48:14;;;;;;;1999.90;999.90;;;;;;;;;;5066370;28;20493;-84
2023/10/24 00:50:39;;;;;;;1999.90;999.90;;;;;;;;;;5062589;28;20076;-83
2023/10/24 00:53:07;;;;;;;1999.90;999.90;;;;;;;;;;5062950;28;20552;-85
2023/10/24 00:55:37;;;;;;;1999.90;999.90;;;;;;;;;;5063866;28;20045;-84
2023/10/24 00:58:04;;;;;;;1999.90;999.90;;;;;;;;;;5060064;28;20041;-83
2023/10/24 01:00:31;;;;;;;1999.90;999.90;;;;;;;;;;5062907;28;20816;-83
2023/10/24 01:02:57;;;;;;;1999.90;999.90;;;;;;;;;;5059870;28;20044;-83
2023/10/24 01:05:24;;;;;;;1999.90;999.90;;;;;;;;;;5062037;28;20080;-85
2023/10/24 01:07:51;;;;;;;1999.90;999.90;;;;;;;;;;5059190;28;20055;-84
2023/10/24 01:10:19;;;;;;;1999.90;999.90;;;;;;;;;;5060095;28;20066;-83
2023/10/24 01:12:46;;;;;;;1999.90;999.90;;;;;;;;;;5062574;28;20068;-83
2023/10/24 01:15:12;;;;;;;1999.90;999.90;;;;;;;;;;5059869;28;20424;-83
2023/10/24 01:17:48;;;;;;;1999.90;999.90;;;;;;;;;;5058232;28;20485;-83
2023/10/24 01:20:15;;;;;;;1999.90;999.90;;;;;;;;;;5059717;28;20051;-82
2023/10/24 01:22:43;;;;;;;1999.90;999.90;;;;;;;;;;5057451;28;20045;-83
2023/10/24 01:25:12;;;;;;;1999.90;999.90;;;;;;;;;;5061195;28;20052;-82
2023/10/24 01:27:39;;;;;;;1999.90;999.90;;;;;;;;;;5060988;28;20500;-85
2023/10/24 01:30:07;;;;;;;1999.90;999.90;;;;;;;;;;5064517;28;20048;-83
2023/10/24 01:32:33;;;;;;;1999.90;999.90;;;;;;;;;;5060544;28;20535;-83
2023/10/24 01:35:00;;;;;;;1999.90;999.90;;;;;;;;;;5058538;28;20045;-82
2023/10/24 01:37:26;;;;;;;1999.90;999.90;;;;;;;;;;5062096;28;20517;-83
2023/10/24 01:39:54;;;;;;;1999.90;999.90;;;;;;;;;;5056467;28;20044;-83
2023/10/24 01:42:21;;;;;;;1999.90;999.90;;;;;;;;;;5059126;28;20056;-82
2023/10/24 01:44:47;;;;;;;1999.90;999.90;;;;;;;;;;5062112;28;20049;-84
2023/10/24 01:47:14;;;;;;;1999.90;999.90;;;;;;;;;;5059415;28;20485;-82
2023/10/24 01:49:40;;;;;;;1999.90;999.90;;;;;;;;;;5064102;28;20049;-83
2023/10/24 01:52:07;;;;;;;1999.90;999.90;;;;;;;;;;5059789;28;20053;-83
2023/10/24 01:54:33;;;;;;;1999.90;999.90;;;;;;;;;;5060793;28;20057;-83
2023/10/24 01:57:01;;;;;;;1999.90;999.90;;;;;;;;;;5061050;28;20049;-82
2023/10/24 01:59:28;;;;;;;1999.90;999.90;;;;;;;;;;5059479;28;20048;-81
2023/10/24 02:01:54;;;;;;;1999.90;999.90;;;;;;;;;;5064697;28;20052;-82
2023/10/24 02:04:21;;;;;;;1999.90;999.90;;;;;;;;;;5057338;28;20052;-82
2023/10/24 02:06:47;;;;;;;1999.90;999.90;;;;;;;;;;5056796;28;20058;-83
2023/10/24 02:09:14;;;;;;;1999.90;999.90;;;;;;;;;;5064166;28;20044;-83
2023/10/24 02:11:40;;;;;;;1999.90;999.90;;;;;;;;;;5064386;28;20105;-83
2023/10/24 02:14:13;;;;;;;1999.90;999.90;;;;;;;;;;5058235;28;20049;-82
2023/10/24 02:16:40;;;;;;;1999.90;999.90;;;;;;;;;;5058554;28;20496;-82
2023/10/24 02:19:07;;;;;;;1999.90;999.90;;;;;;;;;;5060743;28;20047;-82
2023/10/24 02:21:33;;;;;;;1999.90;999.90;;;;;;;;;;5058727;28;20045;-83
2023/10/24 02:24:00;;;;;;;1999.90;999.90;;;;;;;;;;5059968;28;20052;-82
2023/10/24 02:26:26;;;;;;;1999.90;999.90;;;;;;;;;;5057575;28;20050;-82
2023/10/24 02:28:53;;;;;;;1999.90;999.90;;;;;;;;;;5056134;28;20493;-83
2023/10/24 02:31:21;;;;;;;1999.90;999.90;;;;;;;;;;5063886;28;20040;-82
2023/10/24 02:33:47;;;;;;;1999.90;999.90;;;;;;;;;;5057976;28;20052;-83
2023/10/24 02:36:15;;;;;;;1999.90;999.90;;;;;;;;;;5058284;28;20049;-83
2023/10/24 02:38:42;;;;;;;1999.90;999.90;;;;;;;;;;5059923;28;20049;-83
2023/10/24 02:41:09;;;;;;;1999.90;999.90;;;;;;;;;;5054081;28;20114;-83
2023/10/24 02:43:36;;;;;;;1999.90;999.90;;;;;;;;;;5056172;28;20412;-82
2023/10/24 02:46:04;;;;;;;1999.90;999.90;;;;;;;;;;5059885;28;20053;-84
2023/10/24 02:48:32;;;;;;;1999.90;999.90;;;;;;;;;;5056465;28;20049;-82
2023/10/24 02:50:58;;;;;;;1999.90;999.90;;;;;;;;;;5058634;28;20048;-83
2023/10/24 02:53:25;;;;;;;1999.90;999.90;;;;;;;;;;5057956;28;20417;-84
2023/10/24 02:55:52;;;;;;;1999.90;999.90;;;;;;;;;;5062189;28;20040;-81
2023/10/24 02:58:19;;;;;;;1999.90;999.90;;;;;;;;;;5056458;28;20409;-81
2023/10/24 03:00:46;;;;;;;1999.90;999.90;;;;;;;;;;5062027;28;20057;-82
2023/10/24 03:03:13;;;;;;;1999.90;999.90;;;;;;;;;;5055969;28;20064;-82
2023/10/24 03:05:41;;;;;;;1999.90;999.90;;;;;;;;;;5056609;28;20072;-82
2023/10/24 03:08:07;;;;;;;1999.90;999.90;;;;;;;;;;5060839;28;20131;-82
2023/10/24 03:10:39;;;;;;;1999.90;999.90;;;;;;;;;;5055471;28;20060;-81
2023/10/24 03:13:06;;;;;;;1999.90;999.90;;;;;;;;;;5055918;28;20045;-81
2023/10/24 03:15:33;;;;;;;1999.90;999.90;;;;;;;;;;5060747;28;20045;-81
2023/10/24 03:17:59;;;;;;;1999.90;999.90;;;;;;;;;;5063708;28;20391;-82
2023/10/24 03:20:27;;;;;;;1999.90;999.90;;;;;;;;;;5058636;28;20051;-82
2023/10/24 03:22:54;;;;;;;1999.90;999.90;;;;;;;;;;5055896;28;20041;-81
2023/10/24 03:25:21;;;;;;;1999.90;999.90;;;;;;;;;;5057014;28;20064;-82
2023/10/24 03:27:47;;;;;;;1999.90;999.90;;;;;;;;;;5058606;28;20493;-81
2023/10/24 03:30:14;;;;;;;1999.90;999.90;;;;;;;;;;5057157;28;20059;-82
2023/10/24 03:32:40;;;;;;;1999.90;999.90;;;;;;;;;;5058837;28;20098;-82
2023/10/24 03:35:08;;;;;;;1999.90;999.90;;;;;;;;;;5057659;28;20142;-83
2023/10/24 03:37:34;;;;;;;1999.90;999.90;;;;;;;;;;5055284;28;20037;-81
2023/10/24 03:40:03;;;;;;;1999.90;999.90;;;;;;;;;;5064887;28;20378;-81
2023/10/24 03:42:30;;;;;;;1999.90;999.90;;;;;;;;;;5063277;28;20072;-81
2023/10/24 03:44:56;;;;;;;1999.90;999.90;;;;;;;;;;5060664;28;20060;-82
2023/10/24 03:47:23;;;;;;;1999.90;999.90;;;;;;;;;;5066050;28;20044;-82
2023/10/24 03:49:50;;;;;;;1999.90;999.90;;;;;;;;;;5062829;28;20044;-83
2023/10/24 03:52:16;;;;;;;1999.90;999.90;;;;;;;;;;5061835;28;20423;-82
2023/10/24 03:54:43;;;;;;;1999.90;999.90;;;;;;;;;;5066883;28;20048;-81
2023/10/24 03:57:10;;;;;;;1999.90;999.90;;;;;;;;;;5064952;28;20047;-81
2023/10/24 03:59:37;;;;;;;1999.90;999.90;;;;;;;;;;5062848;28;20061;-82
2023/10/24 04:02:04;;;;;;;1999.90;999.90;;;;;;;;;;5065805;28;20053;-81
2023/10/24 04:04:30;;;;;;;1999.90;999.90;;;;;;;;;;5063735;28;20048;-82
2023/10/24 04:06:57;;;;;;;1999.90;999.90;;;;;;;;;;5059958;28;20053;-81
2023/10/24 04:09:24;;;;;;;1999.90;999.90;;;;;;;;;;5064978;28;20048;-81
2023/10/24 04:11:50;;;;;;;1999.90;999.90;;;;;;;;;;5069229;28;20045;-81
2023/10/24 04:14:18;;;;;;;1999.90;999.90;;;;;;;;;;5069900;28;20074;-81
2023/10/24 04:16:44;;;;;;;1999.90;999.90;;;;;;;;;;5068837;28;20044;-81
2023/10/24 04:19:11;;;;;;;1999.90;999.90;;;;;;;;;;5069923;28;20087;-81
2023/10/24 04:21:37;;;;;;;1999.90;999.90;;;;;;;;;;5067946;28;20507;-82
2023/10/24 04:24:05;;;;;;;1999.90;999.90;;;;;;;;;;5070229;28;20050;-82
2023/10/24 04:26:31;;;;;;;1999.90;999.90;;;;;;;;;;5060800;28;20049;-82
2023/10/24 04:28:58;;;;;;;1999.90;999.90;;;;;;;;;;5062394;28;20055;-81
2023/10/24 04:31:25;;;;;;;1999.90;999.90;;;;;;;;;;5064108;28;20404;-82
2023/10/24 04:33:52;;;;;;;1999.90;999.90;;;;;;;;;;5063980;28;20048;-81
2023/10/24 04:36:18;;;;;;;1999.90;999.90;;;;;;;;;;5061478;28;20067;-82
2023/10/24 04:38:45;;;;;;;1999.90;999.90;;;;;;;;;;5060612;28;20041;-82
2023/10/24 04:41:11;;;;;;;1999.90;999.90;;;;;;;;;;5056510;28;20049;-81
2023/10/24 04:43:38;;;;;;;1999.90;999.90;;;;;;;;;;5062493;28;20032;-82
2023/10/24 04:46:04;;;;;;;1999.90;999.90;;;;;;;;;;5064395;28;20048;-81
2023/10/24 04:48:32;;;;;;;1999.90;999.90;;;;;;;;;;5060180;28;20506;-82
2023/10/24 04:50:59;;;;;;;1999.90;999.90;;;;;;;;;;5061637;28;20048;-81
2023/10/24 04:53:25;;;;;;;1999.90;999.90;;;;;;;;;;5061224;28;20048;-82
2023/10/24 04:55:52;;;;;;;1999.90;999.90;;;;;;;;;;5062776;28;20045;-82
2023/10/24 04:58:18;;;;;;;1999.90;999.90;;;;;;;;;;5070207;28;20041;-82
2023/10/24 05:00:45;;;;;;;1999.90;999.90;;;;;;;;;;5073527;28;20050;-81
2023/10/24 05:03:11;;;;;;;1999.90;999.90;;;;;;;;;;5066618;28;20061;-82
2023/10/24 05:05:39;;;;;;;1999.90;999.90;;;;;;;;;;5063818;28;20044;-82
2023/10/24 05:08:09;;;;;;;1999.90;999.90;;;;;;;;;;5053536;28;20099;-81
2023/10/24 05:10:36;;;;;;;1999.90;999.90;;;;;;;;;;5061502;28;20464;-82
2023/10/24 05:13:02;;;;;;;1999.90;999.90;;;;;;;;;;5060392;28;20052;-82
2023/10/24 05:15:29;;;;;;;1999.90;999.90;;;;;;;;;;5060970;28;20053;-83
2023/10/24 05:17:56;;;;;;;1999.90;999.90;;;;;;;;;;5058964;28;20513;-83
2023/10/24 05:20:22;;;;;;;1999.90;999.90;;;;;;;;;;5055974;28;20041;-82
2023/10/24 05:22:50;;;;;;;1999.90;999.90;;;;;;;;;;5061063;28;20045;-82
2023/10/24 05:25:16;;;;;;;1999.90;999.90;;;;;;;;;;5057992;28;20049;-82
2023/10/24 05:27:43;;;;;;;1999.90;999.90;;;;;;;;;;5057571;28;20041;-82
2023/10/24 05:30:10;;;;;;;1999.90;999.90;;;;;;;;;;5062577;28;20044;-81
2023/10/24 05:32:37;;;;;;;1999.90;999.90;;;;;;;;;;5058197;28;20254;-82
2023/10/24 05:35:04;;;;;;;1999.90;999.90;;;;;;;;;;5058706;28;20507;-82
2023/10/24 05:37:31;;;;;;;1999.90;999.90;;;;;;;;;;5060651;28;20055;-81
2023/10/24 05:39:59;;;;;;;1999.90;999.90;;;;;;;;;;5059679;28;20079;-81
2023/10/24 05:42:26;;;;;;;1999.90;999.90;;;;;;;;;;5061565;28;20041;-81
2023/10/24 05:44:52;;;;;;;1999.90;999.90;;;;;;;;;;5061218;28;20053;-82
2023/10/24 05:47:19;;;;;;;1999.90;999.90;;;;;;;;;;5060221;28;20037;-82
2023/10/24 05:49:45;;;;;;;1999.90;999.90;;;;;;;;;;5060246;28;20059;-82
2023/10/24 05:52:27;;;;;;;1999.90;999.90;;;;;;;;;;5031293;28;20096;-82
2023/10/24 05:54:53;;;;;;;1999.90;999.90;;;;;;;;;;5057810;28;20489;-82
2023/10/24 05:57:23;;;;;;;1999.90;999.90;;;;;;;;;;5059591;28;20049;-81
2023/10/24 05:59:49;;;;;;;1999.90;999.90;;;;;;;;;;5059049;28;20048;-82
2023/10/24 06:02:16;;;;;;;1999.90;999.90;;;;;;;;;;5060167;28;20052;-81
2023/10/24 06:04:42;;;;;;;1999.90;999.90;;;;;;;;;;5060186;28;20068;-81
2023/10/24 06:07:09;;;;;;;1999.90;999.90;;;;;;;;;;5057605;28;20063;-81
2023/10/24 06:09:35;;;;;;;1999.90;999.90;;;;;;;;;;5062098;28;20051;-82
2023/10/24 06:12:02;;;;;;;1999.90;999.90;;;;;;;;;;5059970;28;20052;-82
2023/10/24 06:14:30;;;;;;;1999.90;999.90;;;;;;;;;;5061655;28;20052;-82
2023/10/24 06:16:56;;;;;;;1999.90;999.90;;;;;;;;;;5057084;28;20049;-81
2023/10/24 06:19:23;;;;;;;1999.90;999.90;;;;;;;;;;5059616;28;20045;-81
2023/10/24 06:21:49;;;;;;;1999.90;999.90;;;;;;;;;;5060989;28;20099;-81
2023/10/24 06:24:16;;;;;;;1999.90;999.90;;;;;;;;;;5060573;28;20041;-82
2023/10/24 06:26:42;;;;;;;1999.90;999.90;;;;;;;;;;5058501;28;20048;-81
2023/10/24 06:29:09;;;;;;;1999.90;999.90;;;;;;;;;;5061151;28;20400;-79
2023/10/24 06:31:36;;;;;;;1999.90;999.90;;;;;;;;;;5055569;28;20052;-79
2023/10/24 06:34:03;;;;;;;1999.90;999.90;;;;;;;;;;5059440;28;20047;-79
2023/10/24 06:36:30;;;;;;;1999.90;999.90;;;;;;;;;;5063272;28;20048;-79
2023/10/24 06:38:56;;;;;;;1999.90;999.90;;;;;;;;;;5058566;28;20509;-79
2023/10/24 06:41:23;;;;;;;1999.90;999.90;;;;;;;;;;5056311;28;20044;-80
2023/10/24 06:43:50;;;;;;;1999.90;999.90;;;;;;;;;;5055930;28;20493;-79
2023/10/24 06:46:17;;;;;;;1999.90;999.90;;;;;;;;;;5059475;28;20459;-80
2023/10/24 06:48:45;;;;;;;1999.90;999.90;;;;;;;;;;5054510;28;20056;-79
2023/10/24 06:51:11;;;;;;;1999.90;999.90;;;;;;;;;;5061516;28;20049;-80
2023/10/24 06:53:37;;;;;;;1999.90;999.90;;;;;;;;;;5054713;28;20490;-79
2023/10/24 06:56:04;;;;;;;1999.90;999.90;;;;;;;;;;5056247;28;20044;-79
2023/10/24 06:58:31;;;;;;;1999.90;999.90;;;;;;;;;;5056504;28;20048;-80
2023/10/24 07:00:57;;;;;;;1999.90;999.90;;;;;;;;;;5060327;28;20057;-79
2023/10/24 07:03:24;;;;;;;1999.90;999.90;;;;;;;;;;5057061;28;20048;-79
2023/10/24 07:05:52;;;;;;;1999.90;999.90;;;;;;;;;;5063826;28;20059;-80
2023/10/24 07:08:19;;;;;;;1999.90;999.90;;;;;;;;;;5060210;28;20057;-80
2023/10/24 07:10:45;;;;;;;1999.90;999.90;;;;;;;;;;5054408;28;20052;-79
2023/10/24 07:13:12;;;;;;;1999.90;999.90;;;;;;;;;;5062213;28;20051;-80
2023/10/24 07:15:38;;;;;;;1999.90;999.90;;;;;;;;;;5060273;28;20048;-79
2023/10/24 07:18:05;;;;;;;1999.90;999.90;;;;;;;;;;5064420;28;20441;-79
2023/10/24 07:20:35;;;;;;;1999.90;999.90;;;;;;;;;;5064022;28;20041;-79
2023/10/24 07:23:03;;;;;;;1999.90;999.90;;;;;;;;;;5057273;28;20052;-79
2023/10/24 07:25:30;;;;;;;1999.90;999.90;;;;;;;;;;5060188;28;20336;-79
2023/10/24 07:27:57;;;;;;;1999.90;999.90;;;;;;;;;;5063528;28;20048;-79
2023/10/24 07:30:24;;;;;;;1999.90;999.90;;;;;;;;;;5059485;28;20143;-81
2023/10/24 07:32:50;;;;;;;1999.90;999.90;;;;;;;;;;5061925;28;20053;-82
2023/10/24 07:35:17;;;;;;;1999.90;999.90;;;;;;;;;;5057499;28;20047;-80
2023/10/24 07:37:44;;;;;;;1999.90;999.90;;;;;;;;;;5060336;28;20049;-80
2023/10/24 07:40:12;;;;;;;1999.90;999.90;;;;;;;;;;5063856;28;20405;-80
2023/10/24 07:42:38;;;;;;;1999.90;999.90;;;;;;;;;;5064713;28;20044;-80
2023/10/24 07:45:06;;;;;;;1999.90;999.90;;;;;;;;;;5067105;28;20409;-80
2023/10/24 07:47:32;;;;;;;1999.90;999.90;;;;;;;;;;5059091;28;20048;-80
2023/10/24 07:50:00;;;;;;;1999.90;999.90;;;;;;;;;;5063235;28;20063;-81
2023/10/24 07:52:26;;;;;;;1999.90;999.90;;;;;;;;;;5063593;28;20547;-82
2023/10/24 07:54:53;;;;;;;1999.90;999.90;;;;;;;;;;5059450;28;20053;-80
2023/10/24 07:57:20;;;;;;;1999.90;999.90;;;;;;;;;;5063333;28;20055;-80
2023/10/24 07:59:47;;;;;;;1999.90;999.90;;;;;;;;;;5062750;28;20048;-80
2023/10/24 08:02:13;;;;;;;1999.90;999.90;;;;;;;;;;5062175;28;20414;-80
2023/10/24 08:04:40;;;;;;;1999.90;999.90;;;;;;;;;;5061600;28;20067;-80
2023/10/24 08:07:06;;;;;;;1999.90;999.90;;;;;;;;;;5061458;28;20056;-80
2023/10/24 08:09:33;;;;;;;1999.90;999.90;;;;;;;;;;5060208;28;20416;-80
2023/10/24 08:12:00;;;;;;;1999.90;999.90;;;;;;;;;;5057881;28;20417;-80
2023/10/24 08:14:28;;;;;;;1999.90;999.90;;;;;;;;;;5065957;28;20091;-81
2023/10/24 08:16:55;;;;;;;1999.90;999.90;;;;;;;;;;5068253;28;20055;-82
2023/10/24 08:19:21;;;;;;;1999.90;999.90;;;;;;;;;;5060514;28;20049;-82
2023/10/24 08:21:48;;;;;;;1999.90;999.90;;;;;;;;;;5063173;28;20055;-80
2023/10/24 08:24:15;;;;;;;1999.90;999.90;;;;;;;;;;5062074;28;20041;-80
2023/10/24 08:26:41;;;;;;;1999.90;999.90;;;;;;;;;;5057160;28;20071;-80
2023/10/24 08:29:08;;;;;;;1999.90;999.90;;;;;;;;;;5065028;28;20049;-79
2023/10/24 08:31:36;;;;;;;1999.90;999.90;;;;;;;;;;5058993;28;20127;-80
2023/10/24 08:34:03;;;;;;;1999.90;999.90;;;;;;;;;;5062553;28;20055;-79
2023/10/24 08:36:29;;;;;;;1999.90;999.90;;;;;;;;;;5063621;28;20044;-80
2023/10/24 08:38:56;;;;;;;1999.90;999.90;;;;;;;;;;5063342;28;20041;-79
2023/10/24 08:41:23;;;;;;;1999.90;999.90;;;;;;;;;;5058835;28;20494;-79
2023/10/24 08:43:49;;;;;;;1999.90;999.90;;;;;;;;;;5059532;28;20052;-80
2023/10/24 08:46:16;;;;;;;1999.90;999.90;;;;;;;;;;5067080;28;20049;-81
2023/10/24 08:48:44;;;;;;;1999.90;999.90;;;;;;;;;;5070951;28;20427;-79
2023/10/24 08:51:11;;;;;;;1999.90;999.90;;;;;;;;;;5061640;28;20037;-80
2023/10/24 08:53:38;;;;;;;1999.90;999.90;;;;;;;;;;5070371;28;20044;-80
2023/10/24 08:56:06;;;;;;;1999.90;999.90;;;;;;;;;;5065463;28;20135;-80
2023/10/24 08:58:34;;;;;;;1999.90;999.90;;;;;;;;;;5059680;28;20049;-81
2023/10/24 09:01:01;;;;;;;1999.90;999.90;;;;;;;;;;5060310;28;20056;-81
2023/10/24 09:03:28;;;;;;;1999.90;999.90;;;;;;;;;;5057547;28;20505;-80
2023/10/24 09:05:56;;;;;;;1999.90;999.90;;;;;;;;;;5059993;28;20084;-81
2023/10/24 09:08:22;;;;;;;1999.90;999.90;;;;;;;;;;5061747;28;20512;-83
2023/10/24 09:10:49;;;;;;;1999.90;999.90;;;;;;;;;;5062793;28;20044;-81
2023/10/24 09:13:15;;;;;;;1999.90;999.90;;;;;;;;;;5060765;28;20048;-81
2023/10/24 09:15:42;;;;;;;1999.90;999.90;;;;;;;;;;5058412;28;20055;-82
2023/10/24 09:18:08;;;;;;;1999.90;999.90;;;;;;;;;;5063301;28;20496;-81
2023/10/24 09:20:35;;;;;;;1999.90;999.90;;;;;;;;;;5059420;28;20143;-81
2023/10/24 09:23:11;;;;;;;1999.90;999.90;;;;;;;;;;5059590;28;20037;-81
2023/10/24 09:25:38;;;;;;;1999.90;999.90;;;;;;;;;;5062809;28;20489;-81
2023/10/24 09:28:17;;;;;;;1999.90;999.90;;;;;;;;;;5059727;28;20052;-80
2023/10/24 09:30:44;;;;;;;1999.90;999.90;;;;;;;;;;5064341;28;20513;-80
2023/10/24 09:33:10;;;;;;;1999.90;999.90;;;;;;;;;;5058241;28;20059;-81
2023/10/24 09:35:37;;;;;;;1999.90;999.90;;;;;;;;;;5059883;28;20041;-80
2023/10/24 09:38:07;;;;;;;1999.90;999.90;;;;;;;;;;5056614;28;20045;-81
2023/10/24 09:40:35;;;;;;;1999.90;999.90;;;;;;;;;;5053185;28;20060;-79
2023/10/24 09:43:05;;;;;;;1999.90;999.90;;;;;;;;;;5061052;28;20103;-82
2023/10/24 09:45:32;;;;;;;1999.90;999.90;;;;;;;;;;5063553;28;20048;-80
2023/10/24 09:47:59;;;;;;;1999.90;999.90;;;;;;;;;;5065410;28;20057;-82
2023/10/24 09:50:26;;;;;;;1999.90;999.90;;;;;;;;;;5069696;28;20043;-83
2023/10/24 09:52:53;;;;;;;1999.90;999.90;;;;;;;;;;5071301;28;20076;-81
2023/10/24 09:55:21;;;;;;;1999.90;999.90;;;;;;;;;;5067081;28;20071;-83
2023/10/24 09:57:49;;;;;;;1999.90;999.90;;;;;;;;;;5065902;28;20049;-82
2023/10/24 10:00:16;;;;;;;1999.90;999.90;;;;;;;;;;5070829;28;20486;-81
2023/10/24 10:02:44;;;;;;;1999.90;999.90;;;;;;;;;;5068543;28;20507;-81
2023/10/24 10:05:10;;;;;;;1999.90;999.90;;;;;;;;;;5067230;28;20123;-82
2023/10/24 10:07:37;;;;;;;1999.90;999.90;;;;;;;;;;5071031;28;20040;-81
2023/10/24 10:10:06;;;;;;;1999.90;999.90;;;;;;;;;;5064800;28;20457;-81
2023/10/24 10:12:35;;;;;;;1999.90;999.90;;;;;;;;;;5061347;28;20080;-81
2023/10/24 10:15:25;;;;;;;1999.90;999.90;;;;;;;;;;5057074;28;20485;-82
2023/10/24 10:17:56;;;;;;;1999.90;999.90;;;;;;;;;;5062055;28;20048;-81
2023/10/24 10:20:37;;;;;;;1999.90;999.90;;;;;;;;;;5062816;28;20360;-81
2023/10/24 10:23:16;;;;;;;1999.90;999.90;;;;;;;;;;5057598;28;20520;-82
2023/10/24 10:25:59;;;;;;;1999.90;999.90;;;;;;;;;;5061886;28;20052;-80
2023/10/24 10:28:50;;;;;;;1999.90;999.90;;;;;;;;;;5058283;28;20495;-80
2023/10/24 10:31:43;;;;;;;1999.90;999.90;;;;;;;;;;5066615;28;20826;-81
2023/10/24 10:34:09;;;;;;;1999.90;999.90;;;;;;;;;;5065243;28;20071;-80
2023/10/24 10:36:38;;;;;;;1999.90;999.90;;;;;;;;;;5066310;28;20051;-80
2023/10/24 10:39:10;;;;;;;1999.90;999.90;;;;;;;;;;5070101;28;20045;-79
2023/10/24 10:41:39;;;;;;;1999.90;999.90;;;;;;;;;;5062154;28;20448;-81
2023/10/24 10:44:39;;;;;;;1999.90;999.90;;;;;;;;;;5059135;28;20052;-82
2023/10/24 10:47:08;;;;;;;1999.90;999.90;;;;;;;;;;5062907;28;20058;-80
2023/10/24 10:49:40;;;;;;;1999.90;999.90;;;;;;;;;;5066112;28;20040;-81
2023/10/24 10:52:11;;;;;;;1999.90;999.90;;;;;;;;;;5063689;28;20497;-81
2023/10/24 10:54:44;;;;;;;1999.90;999.90;;;;;;;;;;5067736;28;20045;-81
2023/10/24 10:57:12;;;;;;;1999.90;999.90;;;;;;;;;;5065423;28;20053;-81
2023/10/24 10:59:44;;;;;;;1999.90;999.90;;;;;;;;;;5064472;28;20048;-80
2023/10/24 11:02:24;;;;;;;1999.90;999.90;;;;;;;;;;5067730;28;20056;-80
2023/10/24 11:04:50;;;;;;;1999.90;999.90;;;;;;;;;;5071247;28;20142;-80
2023/10/24 11:07:18;;;;;;;1999.90;999.90;;;;;;;;;;5065818;28;20063;-80
2023/10/24 11:09:44;;;;;;;1999.90;999.90;;;;;;;;;;5068413;28;20059;-79
2023/10/24 11:12:24;;;;;;;1999.90;999.90;;;;;;;;;;5065414;28;20419;-81
2023/10/24 11:15:24;;;;;;;1999.90;999.90;;;;;;;;;;5066864;28;20052;-79
2023/10/24 11:17:52;;;;;;;1999.90;999.90;;;;;;;;;;5067031;28;20664;-78
2023/10/24 11:20:19;;;;;;;1999.90;999.90;;;;;;;;;;5063627;28;20055;-79
2023/10/24 11:22:46;;;;;;;1999.90;999.90;;;;;;;;;;5070410;28;20132;-79
2023/10/24 11:25:13;;;;;;;1999.90;999.90;;;;;;;;;;5067170;28;20048;-79
2023/10/24 11:27:41;;;;;;;1999.90;999.90;;;;;;;;;;5065311;28;20078;-79
2023/10/24 11:30:08;;;;;;;1999.90;999.90;;;;;;;;;;5068414;28;20443;-79
2023/10/24 11:32:35;;;;;;;1999.90;999.90;;;;;;;;;;5066108;28;20048;-79
2023/10/24 11:35:04;;;;;;;1999.90;999.90;;;;;;;;;;5064400;28;20052;-80
2023/10/24 11:37:31;;;;;;;1999.90;999.90;;;;;;;;;;5064178;28;20095;-80
2023/10/24 11:39:58;;;;;;;1999.90;999.90;;;;;;;;;;5071453;28;20441;-79
2023/10/24 11:42:24;;;;;;;1999.90;999.90;;;;;;;;;;5064492;28;20076;-79
2023/10/24 11:44:52;;;;;;;1999.90;999.90;;;;;;;;;;5068407;28;20136;-80
2023/10/24 11:47:19;;;;;;;1999.90;999.90;;;;;;;;;;5069599;28;20057;-79
2023/10/24 11:49:46;;;;;;;1999.90;999.90;;;;;;;;;;5066325;28;20136;-80
2023/10/24 11:52:14;;;;;;;1999.90;999.90;;;;;;;;;;5066380;28;20525;-80
2023/10/24 11:54:51;;;;;;;1999.90;999.90;;;;;;;;;;5064814;28;20540;-80
2023/10/24 11:57:18;;;;;;;1999.90;999.90;;;;;;;;;;5061110;28;20493;-80
2023/10/24 11:59:47;;;;;;;1999.90;999.90;;;;;;;;;;5063956;28;20041;-82
2023/10/24 12:02:14;;;;;;;1999.90;999.90;;;;;;;;;;5066112;28;20166;-81
2023/10/24 12:04:41;;;;;;;1999.90;999.90;;;;;;;;;;5064520;28;20497;-79
2023/10/24 12:07:09;;;;;;;1999.90;999.90;;;;;;;;;;5060425;28;20132;-80
2023/10/24 12:09:37;;;;;;;1999.90;999.90;;;;;;;;;;5060086;28;20049;-79
2023/10/24 12:12:04;;;;;;;1999.90;999.90;;;;;;;;;;5066782;28;20398;-80
2023/10/24 12:14:30;;;;;;;1999.90;999.90;;;;;;;;;;5064894;28;20446;-82
2023/10/24 12:16:57;;;;;;;1999.90;999.90;;;;;;;;;;5068776;28;20416;-80
2023/10/24 12:19:24;;;;;;;1999.90;999.90;;;;;;;;;;5067583;28;20052;-79
2023/10/24 12:21:51;;;;;;;1999.90;999.90;;;;;;;;;;5069013;28;20044;-80
2023/10/24 12:24:17;;;;;;;1999.90;999.90;;;;;;;;;;5055459;28;20051;-81
2023/10/24 12:26:45;;;;;;;1999.90;999.90;;;;;;;;;;5059789;28;20041;-79
2023/10/24 12:29:12;;;;;;;1999.90;999.90;;;;;;;;;;5065161;28;20072;-80
2023/10/24 12:31:38;;;;;;;1999.90;999.90;;;;;;;;;;5060767;28;20053;-80
2023/10/24 12:34:05;;;;;;;1999.90;999.90;;;;;;;;;;5070297;28;20475;-79
2023/10/24 12:36:32;;;;;;;1999.90;999.90;;;;;;;;;;5062059;28;20049;-79
2023/10/24 12:38:59;;;;;;;1999.90;999.90;;;;;;;;;;5061999;28;20059;-76
2023/10/24 12:41:25;;;;;;;1999.90;999.90;;;;;;;;;;5060407;28;20141;-77
2023/10/24 12:43:53;;;;;;;1999.90;999.90;;;;;;;;;;5060830;28;20055;-79
2023/10/24 12:46:19;;;;;;;1999.90;999.90;;;;;;;;;;5057365;28;20048;-78
2023/10/24 12:48:46;;;;;;;1999.90;999.90;;;;;;;;;;5065157;28;20051;-79
2023/10/24 12:51:13;;;;;;;1999.90;999.90;;;;;;;;;;5061399;28;20045;-77
2023/10/24 12:53:40;;;;;;;1999.90;999.90;;;;;;;;;;5059300;28;20048;-78
2023/10/24 12:56:07;;;;;;;1999.90;999.90;;;;;;;;;;5060400;28;20051;-79
2023/10/24 12:58:34;;;;;;;1999.90;999.90;;;;;;;;;;5061635;28;20048;-78
2023/10/24 13:01:02;;;;;;;1999.90;999.90;;;;;;;;;;5062343;28;20057;-79
2023/10/24 13:03:29;;;;;;;1999.90;999.90;;;;;;;;;;5060919;28;20049;-78
2023/10/24 13:05:55;;;;;;;1999.90;999.90;;;;;;;;;;5057145;28;20131;-76
2023/10/24 13:08:22;;;;;;;1999.90;999.90;;;;;;;;;;5060443;28;20063;-78
2023/10/24 13:10:48;;;;;;;1999.90;999.90;;;;;;;;;;5061824;28;20052;-77
2023/10/24 13:13:15;;;;;;;1999.90;999.90;;;;;;;;;;5057657;28;20067;-78
2023/10/24 13:15:41;;;;;;;1999.90;999.90;;;;;;;;;;5063360;28;20056;-79
2023/10/24 13:18:09;;;;;;;1999.90;999.90;;;;;;;;;;5059700;28;20048;-78
2023/10/24 13:20:36;;;;;;;1999.90;999.90;;;;;;;;;;5062850;28;20051;-78
2023/10/24 13:23:03;;;;;;;1999.90;999.90;;;;;;;;;;5057145;28;20382;-78
2023/10/24 13:25:29;;;;;;;1999.90;999.90;;;;;;;;;;5057415;28;20044;-79
2023/10/24 13:27:56;;;;;;;1999.90;999.90;;;;;;;;;;5060847;28;20240;-78
2023/10/24 13:30:23;;;;;;;1999.90;999.90;;;;;;;;;;5059803;28;20058;-77
2023/10/24 13:32:49;;;;;;;1999.90;999.90;;;;;;;;;;5058854;28;20048;-79
2023/10/24 13:35:17;;;;;;;1999.90;999.90;;;;;;;;;;5054595;28;20051;-78
2023/10/24 13:37:44;;;;;;;1999.90;999.90;;;;;;;;;;5061725;28;20571;-79
2023/10/24 13:40:11;;;;;;;1999.90;999.90;;;;;;;;;;5060283;28;20084;-78
2023/10/24 13:42:38;;;;;;;1999.90;999.90;;;;;;;;;;5054234;28;20507;-78
2023/10/24 13:45:05;;;;;;;1999.90;999.90;;;;;;;;;;5062571;28;20045;-78